Flight Track Log - Related Links

Times and Time Zones

All times are in EDT time to prevent confusion due to time zone crossing. See the TAM3228 flight status page for this flight to view local times or setup timezone preferences in your user account.

Time Position Orientation Groundspeed Altitude Reporting Facility
EDT Latitude Longitude Course Direction KTS MPH feet Rate Location/Type
Wed 08:17:22 PM -23.6120 -46.5930 66° East 211 243 5,500  Level FlightAware ADS-B
Wed 08:17:52 PM -23.6050 -46.5620 76° East 222 255 5,800 327 Climbing FlightAware ADS-B
Wed 08:18:17 PM -23.6010 -46.5350 81° East 222 255 5,800 2,337 Level FlightAware ADS-B
Wed 08:18:57 PM -23.5880 -46.4780 76° East 8,000 3,171 Climbing FlightAware ADS-B
Wed 08:19:27 PM -23.5770 -46.4290 76° East 294 338 9,500 3,257 Climbing FlightAware ADS-B
Wed 08:20:07 PM -23.5640 -46.3700 76° East 308 354 11,800 2,471 Climbing FlightAware ADS-B
Wed 08:20:52 PM -23.5470 -46.2940 76° East 366 421 13,000 2,118 Climbing FlightAware ADS-B
Wed 08:21:32 PM -23.5300 -46.2230 75° East 377 434 14,800 2,836 Climbing FlightAware ADS-B
Wed 08:21:47 PM -23.5140 -46.1960 57° Northeast 378 435 15,600 2,600 Climbing FlightAware ADS-B
Wed 08:22:02 PM -23.4970 -46.1790 43° Northeast 380 437 16,100 2,200 Climbing FlightAware ADS-B
Wed 08:22:17 PM -23.4710 -46.1670 23° Northeast 383 441 16,700 2,182 Climbing FlightAware ADS-B
Wed 08:22:57 PM -23.3990 -46.1510 12° North 398 458 18,100 2,325 Climbing FlightAware ADS-B
Wed 08:23:37 PM -23.3260 -46.1370 10° North 399 459 19,800 2,229 Climbing FlightAware ADS-B
Wed 08:24:07 PM -23.2700 -46.1440 353° North 409 471 20,700 2,160 Climbing FlightAware ADS-B
Wed 08:24:52 PM -23.1850 -46.1580 351° North 403 464 22,500 2,325 Climbing FlightAware ADS-B
Wed 08:25:27 PM -23.1200 -46.1660 354° North 418 481 23,800 2,073 Climbing FlightAware ADS-B
Wed 08:25:47 PM -23.0860 -46.1600 North 422 486 24,400 1,800 Climbing FlightAware ADS-B
Wed 08:26:27 PM -23.0130 -46.1150 30° Northeast 431 496 25,600 2,188 Climbing FlightAware ADS-B
Wed 08:27:12 PM -22.9350 -46.0620 32° Northeast 435 501 27,500 2,259 Climbing FlightAware ADS-B
Wed 08:27:52 PM -22.8640 -46.0140 32° Northeast 437 503 28,800 2,100 Climbing FlightAware ADS-B
Wed 08:28:32 PM -22.7950 -45.9670 32° Northeast 442 509 30,300 1,624 Climbing FlightAware ADS-B
Wed 08:29:17 PM -22.7160 -45.9140 32° Northeast 458 527 31,100 1,129 Climbing FlightAware ADS-B
Wed 08:29:57 PM -22.6470 -45.8670 32° Northeast 461 531 31,900 1,800 Climbing FlightAware ADS-B
Wed 08:30:37 PM -22.5710 -45.8150 32° Northeast 459 528 33,500 2,188 Climbing FlightAware ADS-B
Wed 08:31:22 PM -22.4880 -45.7600 31° Northeast 452 520 35,000 1,976 Climbing FlightAware ADS-B
Wed 08:32:02 PM -22.4190 -45.7130 32° Northeast 437 503 36,300 1,765 Climbing FlightAware ADS-B
Wed 08:32:47 PM -22.3430 -45.6610 32° Northeast 436 502 37,500 1,200 Climbing FlightAware ADS-B
Wed 08:33:27 PM -22.2730 -45.6140 32° Northeast 438 504 38,000 776 Climbing FlightAware ADS-B
Wed 08:34:12 PM -22.1940 -45.5620 31° Northeast 442 509 38,600 706 Climbing FlightAware ADS-B
Wed 08:34:52 PM -22.1220 -45.5130 32° Northeast 458 527 39,000 300 Climbing FlightAware ADS-B
Wed 08:35:32 PM -22.0480 -45.4640 32° Northeast 461 531 39,000  Level FlightAware ADS-B
Wed 08:36:17 PM -21.9680 -45.4100 32° Northeast 460 529 39,000  Level FlightAware ADS-B
Wed 08:36:57 PM -21.8950 -45.3610 32° Northeast 459 528 39,000  Level FlightAware ADS-B
Wed 08:37:42 PM -21.8150 -45.3070 32° Northeast 458 527 39,000  Level FlightAware ADS-B
Wed 08:38:22 PM -21.7410 -45.2580 32° Northeast 457 526 39,000  Level FlightAware ADS-B
Wed 08:39:12 PM -21.6530 -45.1990 32° Northeast 458 527 39,000  Level FlightAware ADS-B
Wed 08:39:52 PM -21.5810 -45.1510 32° Northeast 459 528 39,000  Level FlightAware ADS-B
Wed 08:40:37 PM -21.4980 -45.0960 32° Northeast 458 527 39,000  Level FlightAware ADS-B
Wed 08:41:17 PM -21.4280 -45.0490 32° Northeast 456 525 39,000 -400 Level FlightAware ADS-B
Wed 08:41:52 PM -21.3640 -45.0070 31° Northeast 451 519 38,500 -1,129 Descending FlightAware ADS-B
Wed 08:42:42 PM -21.2730 -44.9460 32° Northeast 455 524 37,400 -1,400 Descending FlightAware ADS-B
Wed 08:43:22 PM -21.2020 -44.8990 32° Northeast 453 521 36,400 -1,694 Descending FlightAware ADS-B
Wed 08:44:07 PM -21.1230 -44.8470 32° Northeast 429 494 35,000 -2,400 Descending FlightAware ADS-B
Wed 08:44:47 PM -21.0530 -44.8010 32° Northeast 430 495 33,000 -3,150 Descending FlightAware ADS-B
Wed 08:45:27 PM -20.9810 -44.7630 26° Northeast 439 505 30,800 -2,824 Descending FlightAware ADS-B
Wed 08:46:12 PM -20.8940 -44.7260 22° Northeast 440 506 29,000 -1,835 Descending FlightAware ADS-B
Wed 08:46:52 PM -20.8210 -44.6950 22° Northeast 408 470 28,200 -1,624 Descending FlightAware ADS-B
Wed 08:47:37 PM -20.7490 -44.6650 21° North 395 455 26,700 -1,482 Descending FlightAware ADS-B
Wed 08:48:17 PM -20.6780 -44.6350 22° Northeast 393 452 26,100 -2,560 Descending FlightAware ADS-B
Wed 08:48:52 PM -20.6130 -44.6070 22° Northeast 393 452 23,500 -2,965 Descending FlightAware ADS-B
Wed 08:49:42 PM -20.5310 -44.5720 22° Northeast 378 435 21,900 -1,829 Descending FlightAware ADS-B
Wed 08:50:37 PM -20.4450 -44.5360 21° North 364 419 20,300 -1,636 Descending FlightAware ADS-B
Wed 08:51:32 PM -20.3640 -44.5020 21° North 352 405 18,900 -1,705 Descending FlightAware ADS-B
Wed 08:52:12 PM -20.2970 -44.4730 22° Northeast 349 402 17,600 -1,760 Descending FlightAware ADS-B
Wed 08:52:47 PM -20.2440 -44.4510 21° North 347 399 16,700 -1,560 Descending FlightAware ADS-B
Wed 08:53:52 PM -20.1480 -44.4110 21° North 342 394 15,000 -1,600 Descending FlightAware ADS-B
Wed 08:54:32 PM -20.0890 -44.3860 22° Northeast 333 383 13,900 -1,575 Descending FlightAware ADS-B
Wed 08:55:12 PM -20.0330 -44.3620 22° Northeast 325 374 12,900 -1,500 Descending FlightAware ADS-B
Wed 08:56:12 PM -19.9500 -44.3270 22° Northeast 312 359 11,400 -1,440 Descending FlightAware ADS-B
Wed 08:56:52 PM -19.8970 -44.3050 21° North 299 344 10,500 -1,385 Descending FlightAware ADS-B
Wed 08:57:17 PM -19.8670 -44.2920 22° Northeast 291 335 9,900 -1,200 Descending FlightAware ADS-B
Wed 08:57:47 PM -19.8330 -44.2810 17° North 277 319 9,400 -873 Descending FlightAware ADS-B
Wed 08:58:12 PM -19.7960 -44.2790 North 256 295 9,100 -320 Descending FlightAware ADS-B
Wed 08:59:02 PM -19.7390 -44.2780 North 247 284 9,000 -80 Descending FlightAware ADS-B
Wed 08:59:27 PM -19.7100 -44.2770 North 246 283 9,000  Level FlightAware ADS-B
Wed 08:59:52 PM -19.6820 -44.2760 North 247 284 9,000  Level FlightAware ADS-B
Wed 09:00:12 PM -19.6600 -44.2760 360° North 250 288 9,000  Level FlightAware ADS-B
Wed 09:00:37 PM -19.6290 -44.2750 North 249 287 9,000  Level FlightAware ADS-B
Wed 09:01:07 PM -19.5950 -44.2730 North 244 281 9,000  Level FlightAware ADS-B
Wed 09:01:32 PM -19.5730 -44.2730 360° North 230 265 9,000  Level FlightAware ADS-B
Wed 09:02:02 PM -19.5370 -44.2720 North 225 259 9,000  Level FlightAware ADS-B
Wed 09:02:22 PM -19.5160 -44.2710 North 213 245 9,000  Level FlightAware ADS-B
Wed 09:02:42 PM -19.4970 -44.2700 North 208 239 9,000  Level FlightAware ADS-B
Wed 09:03:12 PM -19.4670 -44.2690 North 211 243 9,000  Level FlightAware ADS-B
Wed 09:03:37 PM -19.4480 -44.2690 360° North 210 242 9,000  Level FlightAware ADS-B
Wed 09:04:02 PM -19.4190 -44.2680 North 210 242 9,000  Level FlightAware ADS-B
Wed 09:04:37 PM -19.3840 -44.2670 North 212 244 9,000 -360 Level FlightAware ADS-B
Wed 09:04:52 PM -19.3700 -44.2640 11° North 216 249 8,700 -1,200 Descending FlightAware ADS-B
Wed 09:05:12 PM -19.3560 -44.2500 43° Northeast 221 254 8,300 -900 Descending FlightAware ADS-B
Wed 09:05:32 PM -19.3540 -44.2270 85° East 224 258 8,100 -900 Descending FlightAware ADS-B
Wed 09:06:12 PM -19.3540 -44.1860 90° East 221 254 7,400 -1,029 Descending FlightAware ADS-B
Wed 09:06:42 PM -19.3630 -44.1550 107° East 218 251 6,900 -900 Descending FlightAware ADS-B
Wed 09:06:52 PM -19.3710 -44.1490 145° Southeast 216 249 6,800 -764 Descending FlightAware ADS-B
Wed 09:07:37 PM -19.4090 -44.1340 160° South 212 244 6,200 -960 Descending FlightAware ADS-B
Wed 09:08:07 PM -19.4400 -44.1220 160° South 209 241 5,600 -873 Descending FlightAware ADS-B
Wed 09:08:32 PM -19.4590 -44.1140 158° South 208 239 5,400 -436 Descending FlightAware ADS-B
Wed 09:09:02 PM -19.4900 -44.1000 157° South 204 235 5,200 -353 Descending FlightAware ADS-B
Wed 09:09:57 PM -19.5270 -44.0680 141° Southeast 177 204 4,900 -565 Descending FlightAware ADS-B
Wed 09:10:27 PM -19.5450 -44.0500 137° Southeast 166 191 4,400 -900 Descending FlightAware ADS-B
Wed 09:10:37 PM -19.5510 -44.0450 142° Southeast 159 183 4,300 -750 Descending FlightAware ADS-B
Wed 09:11:07 PM -19.5670 -44.0310 140° Southeast 142 163 3,900 -700 Descending FlightAware ADS-B
Wed 09:11:37 PM -19.5810 -44.0170 137° Southeast 130 150 3,600 -667 Descending FlightAware ADS-B
Wed 09:11:52 PM -19.5860 -44.0130 143° Southeast 126 145 3,400 -686 Descending FlightAware ADS-B
Wed 09:12:47 PM -19.6100 -43.9900 138° Southeast 126 145 2,800 -600 Descending FlightAware ADS-B
Wed 09:13:12 PM -19.6210 -43.9800 139° Southeast 126 145 2,600 -480 Descending FlightAware ADS-B

Login

Don't have an account? Register now (free) for customized features, flight alerts, and more!